createdAt,value
2022-09-06T00:01:00.930Z,52.41
2022-09-06T00:03:28.253Z,51.93
2022-09-06T00:05:55.153Z,52.21
2022-09-06T00:08:21.788Z,52.81
2022-09-06T00:10:48.363Z,52.64
2022-09-06T00:13:14.931Z,52.74
2022-09-06T00:15:41.471Z,52.32
2022-09-06T00:18:08.626Z,52.59
2022-09-06T00:20:35.227Z,52.57
2022-09-06T00:23:04.617Z,53.08
2022-09-06T00:25:32.055Z,52.93
2022-09-06T00:28:01.595Z,52.65
2022-09-06T00:30:29.365Z,53.20
2022-09-06T00:32:56.922Z,53.49
2022-09-06T00:35:26.998Z,53.88
2022-09-06T00:37:58.382Z,53.57
2022-09-06T00:40:25.588Z,53.63
2022-09-06T00:42:52.489Z,54.48
2022-09-06T00:45:19.228Z,54.70
2022-09-06T00:47:45.855Z,54.59
2022-09-06T00:50:13.951Z,54.18
2022-09-06T00:52:41.968Z,54.64
2022-09-06T00:55:08.959Z,54.50
2022-09-06T00:57:35.841Z,54.06
2022-09-06T01:00:05.686Z,54.71
2022-09-06T01:02:32.445Z,54.58
2022-09-06T01:04:59.301Z,54.79
2022-09-06T01:08:16.493Z,53.55
2022-09-06T01:10:58.108Z,53.27
2022-09-06T01:13:53.563Z,53.47
2022-09-06T01:16:32.226Z,53.92
2022-09-06T01:19:40.841Z,53.83
2022-09-06T01:22:14.619Z,54.06
2022-09-06T01:25:00.014Z,53.29
2022-09-06T01:27:32.137Z,53.60
2022-09-06T01:30:08.429Z,53.84
2022-09-06T01:32:51.317Z,53.64
2022-09-06T01:35:39.727Z,53.75
2022-09-06T01:38:07.120Z,53.93
2022-09-06T01:40:36.451Z,53.64
2022-09-06T01:43:11.286Z,53.62
2022-09-06T01:45:40.733Z,53.39
2022-09-06T01:48:37.872Z,53.68
2022-09-06T01:51:54.964Z,53.56
2022-09-06T01:54:36.625Z,53.65
2022-09-06T01:57:25.027Z,53.53
2022-09-06T02:00:12.492Z,53.52
2022-09-06T02:02:47.458Z,52.88
2022-09-06T02:05:20.886Z,53.61
2022-09-06T02:07:48.601Z,53.91
2022-09-06T02:10:21.754Z,54.35
2022-09-06T02:12:52.201Z,54.25
2022-09-06T02:15:29.019Z,54.27
2022-09-06T02:18:02.337Z,53.71
2022-09-06T02:20:31.433Z,54.03
2022-09-06T02:23:01.917Z,54.64
2022-09-06T02:25:34.292Z,54.42
2022-09-06T02:28:00.787Z,54.66
2022-09-06T02:30:27.323Z,54.82
2022-09-06T02:33:03.188Z,55.32
2022-09-06T02:35:29.892Z,55.02
2022-09-06T02:37:57.067Z,55.34
2022-09-06T02:40:24.344Z,56.09
2022-09-06T02:42:50.959Z,56.23
2022-09-06T02:45:17.439Z,56.33
2022-09-06T02:47:44.129Z,56.74
2022-09-06T02:50:10.688Z,56.99
2022-09-06T02:52:37.147Z,56.11
2022-09-06T02:55:04.776Z,56.10
2022-09-06T02:57:31.433Z,56.92
2022-09-06T02:59:58.448Z,56.79
2022-09-06T03:02:26.038Z,57.03
2022-09-06T03:04:52.620Z,57.35
2022-09-06T03:07:19.105Z,57.49
2022-09-06T03:09:45.673Z,57.26
2022-09-06T03:12:12.163Z,57.02
2022-09-06T03:14:41.233Z,57.05
2022-09-06T03:17:07.907Z,56.87
2022-09-06T03:19:34.436Z,57.11
2022-09-06T03:22:00.902Z,57.24
2022-09-06T03:24:27.449Z,57.60
2022-09-06T03:26:54.074Z,57.66
2022-09-06T03:29:20.555Z,58.43
2022-09-06T03:31:47.124Z,58.21
2022-09-06T03:34:13.676Z,58.34
2022-09-06T03:36:40.150Z,59.00
2022-09-06T03:39:07.276Z,58.11
2022-09-06T03:41:34.048Z,58.69
2022-09-06T03:44:00.548Z,58.31
2022-09-06T03:46:30.511Z,58.13
2022-09-06T03:48:58.451Z,58.53
2022-09-06T03:51:25.045Z,58.20
2022-09-06T03:53:51.711Z,58.18
2022-09-06T03:56:18.349Z,58.15
2022-09-06T03:58:44.813Z,58.01
2022-09-06T04:01:12.611Z,58.35
2022-09-06T04:03:39.617Z,58.05
2022-09-06T04:06:06.851Z,58.59
2022-09-06T04:08:34.489Z,58.26
2022-09-06T04:11:01.206Z,58.08
2022-09-06T04:13:29.215Z,57.50
2022-09-06T04:15:55.961Z,57.35
2022-09-06T04:18:22.891Z,57.23
2022-09-06T04:20:51.586Z,57.01
2022-09-06T04:23:19.223Z,57.43
2022-09-06T04:25:47.327Z,57.07
2022-09-06T04:28:14.116Z,56.68
2022-09-06T04:30:40.728Z,56.93
2022-09-06T04:33:07.473Z,56.29
2022-09-06T04:35:34.652Z,56.11
2022-09-06T04:38:02.132Z,55.12
2022-09-06T04:40:28.852Z,55.28
2022-09-06T04:42:55.475Z,55.13
2022-09-06T04:45:22.217Z,54.59
2022-09-06T04:47:50.402Z,53.56
2022-09-06T04:50:17.318Z,54.16
2022-09-06T04:52:43.989Z,54.08
2022-09-06T04:55:11.036Z,54.73
2022-09-06T04:57:40.902Z,54.42
2022-09-06T05:00:10.649Z,54.24
2022-09-06T05:02:37.362Z,54.33
2022-09-06T05:05:05.033Z,54.71
2022-09-06T05:07:31.685Z,53.94
2022-09-06T05:09:58.569Z,53.87
2022-09-06T05:12:25.049Z,54.25
2022-09-06T05:14:51.624Z,53.92
2022-09-06T05:17:18.276Z,53.33
2022-09-06T05:19:44.827Z,52.67
2022-09-06T05:22:12.345Z,51.95
2022-09-06T05:24:39.016Z,52.33
2022-09-06T05:27:07.531Z,52.08
2022-09-06T05:29:34.193Z,51.46
2022-09-06T05:32:00.924Z,52.08
2022-09-06T05:34:27.531Z,51.28
2022-09-06T05:36:54.141Z,51.04
2022-09-06T05:39:21.896Z,51.32
2022-09-06T05:41:48.553Z,50.77
2022-09-06T05:44:16.243Z,49.81
2022-09-06T05:46:46.340Z,50.42
2022-09-06T05:49:13.440Z,49.99
2022-09-06T05:51:41.032Z,50.01
2022-09-06T05:54:07.966Z,49.63
2022-09-06T05:56:34.919Z,48.61
2022-09-06T05:59:01.658Z,48.94
2022-09-06T06:01:30.166Z,47.54
2022-09-06T06:03:58.961Z,47.81
2022-09-06T06:06:27.250Z,48.51
2022-09-06T06:08:54.256Z,47.79
2022-09-06T06:11:20.782Z,47.50
2022-09-06T06:13:47.930Z,46.72
2022-09-06T06:16:16.437Z,46.02
2022-09-06T06:18:47.653Z,45.19
2022-09-06T06:21:19.765Z,46.19
2022-09-06T06:23:49.268Z,45.29
2022-09-06T06:26:15.792Z,44.24
2022-09-06T06:28:42.521Z,43.09
2022-09-06T06:31:10.654Z,44.28
2022-09-06T06:33:37.882Z,42.82
2022-09-06T06:36:16.854Z,42.69
2022-09-06T06:38:44.726Z,42.80
2022-09-06T06:41:16.421Z,42.30
2022-09-06T06:43:43.211Z,41.97
2022-09-06T06:46:11.018Z,41.86
2022-09-06T06:48:40.659Z,41.68
2022-09-06T06:51:08.706Z,41.97
2022-09-06T06:53:35.701Z,41.22
2022-09-06T06:56:13.188Z,40.98
2022-09-06T06:58:39.752Z,37.70
2022-09-06T07:01:06.834Z,32.07
2022-09-06T07:03:33.664Z,27.82
2022-09-06T07:06:15.392Z,24.13
2022-09-06T07:08:42.855Z,21.46
2022-09-06T07:11:11.823Z,20.74
2022-09-06T07:13:38.940Z,20.80
2022-09-06T07:16:23.562Z,18.55
2022-09-06T07:18:54.176Z,17.54
2022-09-06T07:21:41.939Z,17.23
2022-09-06T07:24:09.396Z,17.54
2022-09-06T07:26:37.558Z,16.40
2022-09-06T07:29:05.802Z,16.09
2022-09-06T07:34:20.683Z,14.36
2022-09-06T07:36:48.248Z,13.77
2022-09-06T07:39:14.778Z,14.56
2022-09-06T07:41:43.041Z,13.25
2022-09-06T07:44:09.689Z,12.61
2022-09-06T07:46:36.395Z,13.00
2022-09-06T07:49:04.778Z,14.09
2022-09-06T07:51:32.040Z,14.81
2022-09-06T07:54:19.381Z,15.82
2022-09-06T07:56:45.542Z,14.14
2022-09-06T07:59:12.053Z,12.99
2022-09-06T08:01:39.291Z,12.85
2022-09-06T08:04:10.358Z,13.36
2022-09-06T08:09:25.338Z,13.60
2022-09-06T08:11:52.770Z,15.01
2022-09-06T08:14:20.001Z,15.63
2022-09-06T08:16:46.862Z,17.97
2022-09-06T08:19:13.696Z,21.29
2022-09-06T08:21:40.336Z,22.86
2022-09-06T08:24:09.787Z,23.41
2022-09-06T08:26:39.864Z,23.27
2022-09-06T08:29:07.729Z,23.99
2022-09-06T08:31:36.262Z,25.30
2022-09-06T08:34:03.401Z,23.59
2022-09-06T08:36:30.830Z,23.66
2022-09-06T08:39:02.316Z,23.49
2022-09-06T08:41:51.207Z,24.17
2022-09-06T08:44:57.384Z,23.82
2022-09-06T08:47:26.903Z,23.95
2022-09-06T08:50:01.765Z,23.79
2022-09-06T08:52:54.376Z,24.24
2022-09-06T08:55:38.678Z,24.33
2022-09-06T08:58:21.157Z,24.21
2022-09-06T09:00:51.358Z,25.52
2022-09-06T09:03:21.811Z,25.52
2022-09-06T09:05:52.695Z,26.12
2022-09-06T09:08:22.212Z,26.37
2022-09-06T09:10:51.990Z,25.89
2022-09-06T09:13:32.697Z,25.96
2022-09-06T09:15:59.275Z,25.79
2022-09-06T09:18:31.956Z,25.98
2022-09-06T09:20:59.152Z,26.48
2022-09-06T09:23:26.170Z,26.98
2022-09-06T09:25:53.898Z,26.22
2022-09-06T09:28:23.763Z,25.43
2022-09-06T09:30:53.036Z,25.51
2022-09-06T09:33:35.819Z,25.44
2022-09-06T09:36:07.459Z,25.20
2022-09-06T09:38:40.981Z,26.17
2022-09-06T09:41:08.499Z,26.50
2022-09-06T09:43:42.644Z,26.34
2022-09-06T09:46:14.616Z,26.54
2022-09-06T09:49:02.037Z,26.76
2022-09-06T09:51:29.525Z,26.80
2022-09-06T09:54:01.302Z,26.57
2022-09-06T09:56:33.436Z,27.42
2022-09-06T09:59:00.706Z,27.57
2022-09-06T10:01:30.305Z,28.79
2022-09-06T10:07:08.568Z,28.30
2022-09-06T10:09:38.875Z,27.90
2022-09-06T10:12:06.444Z,28.28
2022-09-06T10:14:44.156Z,28.79
2022-09-06T10:17:44.543Z,28.64
2022-09-06T10:20:12.721Z,29.36
2022-09-06T10:22:48.441Z,29.10
2022-09-06T10:25:49.544Z,29.31
2022-09-06T10:28:31.311Z,30.27
2022-09-06T10:31:22.551Z,29.13
2022-09-06T10:33:59.207Z,29.27
2022-09-06T10:36:34.850Z,29.97
2022-09-06T10:39:06.204Z,30.06
2022-09-06T10:41:38.899Z,28.62
2022-09-06T10:44:14.273Z,28.78
2022-09-06T10:46:44.603Z,29.38
2022-09-06T10:49:15.439Z,29.49
2022-09-06T10:51:55.673Z,29.00
2022-09-06T10:54:29.740Z,29.62
2022-09-06T11:00:19.907Z,29.01
2022-09-06T11:08:58.685Z,29.00
2022-09-06T11:11:47.714Z,28.56
2022-09-06T11:14:16.096Z,28.08
2022-09-06T11:16:53.695Z,28.93
2022-09-06T11:19:24.265Z,28.34
2022-09-06T11:22:08.153Z,28.06
2022-09-06T11:24:58.504Z,27.65
2022-09-06T11:27:35.227Z,28.12
2022-09-06T11:30:04.175Z,26.83
2022-09-06T11:32:43.677Z,27.69
2022-09-06T11:35:22.279Z,27.42
2022-09-06T11:37:49.798Z,27.61
2022-09-06T11:40:26.903Z,26.43
2022-09-06T11:42:54.710Z,27.35
2022-09-06T11:45:45.753Z,26.62
2022-09-06T11:48:24.479Z,26.18
2022-09-06T11:50:54.381Z,26.58
2022-09-06T11:53:22.934Z,26.02
2022-09-06T11:56:00.174Z,26.29
2022-09-06T11:58:45.017Z,26.44
2022-09-06T12:01:18.931Z,26.56
2022-09-06T12:04:09.467Z,26.14
2022-09-06T12:07:04.008Z,25.13
2022-09-06T12:09:35.617Z,25.38
2022-09-06T12:12:02.689Z,24.78
2022-09-06T12:14:42.647Z,25.54
2022-09-06T12:17:09.843Z,25.20
2022-09-06T12:19:43.913Z,25.23
2022-09-06T12:22:40.298Z,26.17
2022-09-06T12:25:27.049Z,25.96
2022-09-06T12:27:56.205Z,24.83
2022-09-06T12:30:43.379Z,24.61
2022-09-06T12:33:33.983Z,24.26
2022-09-06T12:36:25.963Z,24.74
2022-09-06T12:38:57.416Z,24.05
2022-09-06T12:41:25.157Z,24.27
2022-09-06T12:43:51.861Z,24.48
2022-09-06T12:46:18.857Z,24.18
2022-09-06T12:49:04.909Z,24.01
2022-09-06T12:51:32.365Z,23.55
2022-09-06T12:54:04.581Z,23.39
2022-09-06T12:56:34.394Z,23.32
2022-09-06T12:59:30.797Z,23.43
2022-09-06T13:02:13.827Z,23.12
2022-09-06T13:04:48.743Z,22.61
2022-09-06T13:07:18.058Z,22.12
2022-09-06T13:09:47.152Z,22.31
2022-09-06T13:12:34.358Z,22.72
2022-09-06T13:15:27.812Z,22.79
2022-09-06T13:17:56.091Z,21.87
2022-09-06T13:20:29.263Z,22.34
2022-09-06T13:23:09.363Z,22.44
2022-09-06T13:25:47.535Z,22.48
2022-09-06T13:28:24.775Z,22.91
2022-09-06T13:31:10.913Z,22.28
2022-09-06T13:33:38.079Z,21.01
2022-09-06T13:36:10.609Z,21.13
2022-09-06T13:38:45.477Z,21.65
2022-09-06T13:41:27.546Z,21.56
2022-09-06T13:44:03.735Z,22.03
2022-09-06T13:46:31.972Z,22.26
2022-09-06T13:48:59.089Z,21.87
2022-09-06T13:51:28.707Z,21.89
2022-09-06T13:54:07.651Z,21.46
2022-09-06T13:56:34.951Z,21.26
2022-09-06T13:59:01.839Z,20.78
2022-09-06T14:01:28.502Z,21.10
2022-09-06T14:03:55.318Z,20.72
2022-09-06T14:06:21.838Z,21.04
2022-09-06T14:09:07.283Z,20.97
2022-09-06T14:11:35.336Z,20.57
2022-09-06T14:14:01.883Z,21.73
2022-09-06T14:16:28.576Z,21.48
2022-09-06T14:18:55.496Z,21.04
2022-09-06T14:21:22.141Z,21.53
2022-09-06T14:23:50.971Z,22.29
2022-09-06T14:26:18.977Z,22.75
2022-09-06T14:28:45.668Z,21.01
2022-09-06T14:31:13.987Z,21.35
2022-09-06T14:33:40.802Z,20.82
2022-09-06T14:36:13.093Z,21.17
2022-09-06T14:38:40.891Z,21.14
2022-09-06T14:41:08.171Z,21.47
2022-09-06T14:43:35.855Z,22.46
2022-09-06T14:46:10.731Z,21.88
2022-09-06T14:48:41.607Z,22.32
2022-09-06T14:51:22.200Z,21.56
2022-09-06T14:53:50.890Z,22.08
2022-09-06T14:56:17.856Z,22.52
2022-09-06T14:58:44.974Z,21.91
2022-09-06T15:01:15.731Z,22.16
2022-09-06T15:03:48.714Z,22.12
2022-09-06T15:06:16.382Z,22.72
2022-09-06T15:08:43.061Z,22.64
2022-09-06T15:11:10.365Z,23.48
2022-09-06T15:13:37.878Z,22.67
2022-09-06T15:16:06.007Z,22.85
2022-09-06T15:18:33.301Z,23.13
2022-09-06T15:21:09.796Z,23.59
2022-09-06T15:23:36.963Z,23.22
2022-09-06T15:26:03.761Z,23.76
2022-09-06T15:28:30.613Z,24.05
2022-09-06T15:30:57.273Z,24.46
2022-09-06T15:33:23.915Z,23.70
2022-09-06T15:35:55.121Z,24.05
2022-09-06T15:38:21.819Z,23.99
2022-09-06T15:40:48.437Z,24.43
2022-09-06T15:43:15.143Z,26.21
2022-09-06T15:45:50.017Z,27.43
2022-09-06T15:48:17.276Z,25.46
2022-09-06T15:50:51.267Z,24.49
2022-09-06T15:53:18.928Z,24.22
2022-09-06T15:55:57.323Z,25.59
2022-09-06T15:58:27.918Z,24.99
2022-09-06T16:01:08.206Z,24.96
2022-09-06T16:03:40.769Z,25.70
2022-09-06T16:06:26.712Z,24.64
2022-09-06T16:08:59.883Z,25.36
2022-09-06T16:11:27.729Z,26.05
2022-09-06T16:13:54.518Z,26.51
2022-09-06T16:16:22.771Z,26.32
2022-09-06T16:18:49.338Z,26.43
2022-09-06T16:21:24.599Z,26.87
2022-09-06T16:23:53.650Z,27.61
2022-09-06T16:26:21.824Z,27.40
2022-09-06T16:28:50.033Z,27.12
2022-09-06T16:31:17.400Z,27.46
2022-09-06T16:33:45.533Z,27.54
2022-09-06T16:36:12.974Z,27.53
2022-09-06T16:38:39.924Z,29.23
2022-09-06T16:41:12.811Z,28.62
2022-09-06T16:43:39.437Z,28.66
2022-09-06T16:46:06.451Z,28.29
2022-09-06T16:48:33.543Z,28.73
2022-09-06T16:51:12.900Z,28.04
2022-09-06T16:53:41.050Z,29.32
2022-09-06T16:56:08.280Z,30.87
2022-09-06T16:58:35.530Z,30.51
2022-09-06T17:01:02.120Z,30.38
2022-09-06T17:03:28.956Z,31.37
2022-09-06T17:05:55.609Z,30.14
2022-09-06T17:08:22.187Z,30.26
2022-09-06T17:10:48.910Z,30.92
2022-09-06T17:13:15.711Z,31.03
2022-09-06T17:16:00.789Z,30.89
2022-09-06T17:18:28.161Z,30.60
2022-09-06T17:21:00.954Z,30.82
2022-09-06T17:23:28.668Z,31.25
2022-09-06T17:25:55.273Z,30.50
2022-09-06T17:28:22.229Z,31.25
2022-09-06T17:30:49.344Z,31.61
2022-09-06T17:33:17.654Z,31.69
2022-09-06T17:35:44.976Z,30.92
2022-09-06T17:38:12.343Z,32.07
2022-09-06T17:40:39.115Z,32.92
2022-09-06T17:43:05.891Z,32.43
2022-09-06T17:45:40.672Z,32.97
2022-09-06T17:48:07.333Z,32.97
2022-09-06T17:50:34.386Z,33.15
2022-09-06T17:53:01.665Z,33.26
2022-09-06T17:55:29.137Z,33.10
2022-09-06T17:57:56.509Z,32.83
2022-09-06T18:00:24.159Z,32.96
2022-09-06T18:02:50.793Z,33.11
2022-09-06T18:05:17.777Z,33.91
2022-09-06T18:07:45.655Z,33.94
2022-09-06T18:10:14.512Z,33.73
2022-09-06T18:12:46.649Z,34.09
2022-09-06T18:15:13.613Z,34.83
2022-09-06T18:17:43.708Z,35.18
2022-09-06T18:20:11.166Z,35.63
2022-09-06T18:22:40.827Z,35.54
2022-09-06T18:25:08.949Z,35.86
2022-09-06T18:27:38.565Z,36.01
2022-09-06T18:30:12.825Z,36.59
2022-09-06T18:32:42.112Z,35.02
2022-09-06T18:35:08.956Z,35.29
2022-09-06T18:37:36.649Z,35.00
2022-09-06T18:40:04.881Z,35.73
2022-09-06T18:42:34.885Z,35.34
2022-09-06T18:45:04.047Z,36.12
2022-09-06T18:47:33.186Z,36.51
2022-09-06T18:50:00.322Z,36.93
2022-09-06T18:52:27.018Z,35.82
2022-09-06T18:54:53.656Z,36.34
2022-09-06T18:57:20.343Z,36.80
2022-09-06T18:59:46.842Z,36.37
2022-09-06T19:02:13.900Z,36.72
2022-09-06T19:04:40.520Z,37.58
2022-09-06T19:07:07.073Z,37.19
2022-09-06T19:09:33.579Z,37.01
2022-09-06T19:12:00.370Z,36.29
2022-09-06T19:14:26.950Z,37.46
2022-09-06T19:16:54.364Z,36.89
2022-09-06T19:19:21.924Z,37.70
2022-09-06T19:21:52.508Z,37.39
2022-09-06T19:24:22.822Z,38.16
2022-09-06T19:26:49.941Z,38.58
2022-09-06T19:29:17.991Z,37.42
2022-09-06T19:31:45.610Z,37.22
2022-09-06T19:34:13.526Z,38.01
2022-09-06T19:36:40.249Z,37.96
2022-09-06T19:39:09.545Z,38.02
2022-09-06T19:41:38.451Z,38.73
2022-09-06T19:44:05.921Z,39.77
2022-09-06T19:46:33.543Z,37.91
2022-09-06T19:49:00.612Z,38.43
2022-09-06T19:51:27.252Z,39.34
2022-09-06T19:53:57.401Z,38.19
2022-09-06T19:56:26.415Z,38.53
2022-09-06T19:58:58.272Z,39.06
2022-09-06T20:01:26.618Z,39.54
2022-09-06T20:03:53.204Z,39.74
2022-09-06T20:06:20.192Z,39.02
2022-09-06T20:08:50.322Z,39.26
2022-09-06T20:11:16.858Z,39.99
2022-09-06T20:13:43.599Z,39.30
2022-09-06T20:16:10.899Z,39.31
2022-09-06T20:18:37.832Z,39.35
2022-09-06T20:21:05.167Z,40.15
2022-09-06T20:23:34.191Z,40.05
2022-09-06T20:26:08.187Z,40.87
2022-09-06T20:28:35.320Z,40.28
2022-09-06T20:31:06.986Z,40.56
2022-09-06T20:33:33.935Z,39.98
2022-09-06T20:36:05.801Z,40.87
2022-09-06T20:38:43.007Z,41.21
2022-09-06T20:41:14.568Z,40.88
2022-09-06T20:43:41.672Z,40.34
2022-09-06T20:46:15.033Z,40.27
2022-09-06T20:48:44.769Z,40.10
2022-09-06T20:51:15.684Z,39.13
2022-09-06T20:53:42.298Z,39.99
2022-09-06T20:56:17.112Z,38.42
2022-09-06T20:58:50.959Z,39.54
2022-09-06T21:01:25.497Z,38.95
2022-09-06T21:03:54.167Z,38.26
2022-09-06T21:06:21.247Z,39.04
2022-09-06T21:08:48.152Z,38.69
2022-09-06T21:11:14.957Z,38.83
2022-09-06T21:13:41.603Z,38.67
2022-09-06T21:16:08.642Z,39.22
2022-09-06T21:18:36.288Z,38.96
2022-09-06T21:21:05.617Z,39.00
2022-09-06T21:23:34.488Z,39.26
2022-09-06T21:26:03.661Z,38.96
2022-09-06T21:28:33.268Z,39.45
2022-09-06T21:31:12.102Z,39.77
2022-09-06T21:33:59.409Z,39.34
2022-09-06T21:36:31.374Z,39.08
2022-09-06T21:39:00.633Z,38.67
2022-09-06T21:41:28.206Z,39.48
2022-09-06T21:43:58.535Z,39.38
2022-09-06T21:46:33.466Z,39.84
2022-09-06T21:49:08.374Z,40.34
2022-09-06T21:51:35.409Z,40.42
2022-09-06T21:54:04.482Z,40.42
2022-09-06T21:56:33.994Z,39.65
2022-09-06T21:59:00.654Z,40.13
2022-09-06T22:01:29.537Z,40.85
2022-09-06T22:03:56.219Z,41.29
2022-09-06T22:06:28.771Z,41.57
2022-09-06T22:08:57.707Z,41.72
2022-09-06T22:11:27.376Z,42.08
2022-09-06T22:13:54.225Z,41.72
2022-09-06T22:16:21.971Z,42.83
2022-09-06T22:18:49.113Z,41.92
2022-09-06T22:21:19.967Z,42.21
2022-09-06T22:23:51.296Z,42.18
2022-09-06T22:26:18.567Z,42.59
2022-09-06T22:28:45.162Z,43.01
2022-09-06T22:31:11.663Z,43.03
2022-09-06T22:33:38.659Z,43.25
2022-09-06T22:36:05.779Z,43.17
2022-09-06T22:38:33.251Z,42.92
2022-09-06T22:41:00.194Z,43.54
2022-09-06T22:43:26.864Z,43.62
2022-09-06T22:45:53.481Z,43.93
2022-09-06T22:48:20.053Z,44.63
2022-09-06T22:50:46.631Z,44.29
2022-09-06T22:53:13.282Z,44.27
2022-09-06T22:55:39.805Z,44.55
2022-09-06T22:58:06.609Z,45.53
2022-09-06T23:00:35.856Z,45.21
2022-09-06T23:03:02.455Z,45.41
2022-09-06T23:05:31.855Z,45.44
2022-09-06T23:08:01.501Z,45.56
2022-09-06T23:10:28.743Z,46.05
2022-09-06T23:12:55.327Z,45.78
2022-09-06T23:15:21.983Z,46.35
2022-09-06T23:17:48.627Z,46.85
2022-09-06T23:20:15.129Z,46.94
2022-09-06T23:22:41.901Z,46.69
2022-09-06T23:25:09.347Z,47.29
2022-09-06T23:27:35.952Z,46.63
2022-09-06T23:30:03.646Z,47.25
2022-09-06T23:32:32.441Z,46.37
2022-09-06T23:34:58.997Z,47.21
2022-09-06T23:37:25.473Z,47.13
2022-09-06T23:39:52.617Z,47.55
2022-09-06T23:42:19.413Z,47.86
2022-09-06T23:44:46.338Z,47.21
2022-09-06T23:47:12.841Z,47.42
2022-09-06T23:49:39.313Z,47.45
2022-09-06T23:52:06.092Z,47.54
2022-09-06T23:54:32.622Z,47.59
2022-09-06T23:56:59.186Z,47.44
2022-09-06T23:59:25.683Z,48.86
